createdAt,value
2019-05-28T00:01:47.735Z,8.28
2019-05-28T00:04:17.160Z,8.60
2019-05-28T00:06:46.597Z,8.55
2019-05-28T00:09:16.054Z,7.58
2019-05-28T00:11:45.548Z,7.87
2019-05-28T00:14:15.118Z,8.88
2019-05-28T00:16:44.619Z,9.30
2019-05-28T00:19:14.007Z,8.15
2019-05-28T00:21:43.504Z,8.80
2019-05-28T00:24:15.692Z,8.50
2019-05-28T00:26:45.133Z,9.10
2019-05-28T00:29:17.908Z,9.60
2019-05-28T00:31:47.800Z,9.65
2019-05-28T00:34:17.229Z,10.97
2019-05-28T00:36:46.564Z,10.43
2019-05-28T00:39:19.038Z,10.45
2019-05-28T00:41:48.584Z,10.72
2019-05-28T00:44:18.207Z,9.70
2019-05-28T00:46:47.646Z,9.58
2019-05-28T00:49:20.322Z,9.25
2019-05-28T00:51:50.453Z,9.53
2019-05-28T00:54:19.876Z,9.65
2019-05-28T00:56:50.159Z,9.18
2019-05-28T00:59:21.194Z,8.90
2019-05-28T01:01:50.858Z,8.68
2019-05-28T01:04:24.036Z,9.25
2019-05-28T01:07:00.633Z,9.00
2019-05-28T01:09:30.234Z,9.43
2019-05-28T01:11:59.708Z,9.88
2019-05-28T01:14:29.511Z,8.73
2019-05-28T01:16:59.261Z,8.73
2019-05-28T01:19:35.173Z,8.78
2019-05-28T01:22:04.603Z,9.48
2019-05-28T01:24:48.088Z,8.90
2019-05-28T01:27:19.929Z,9.00
2019-05-28T01:29:49.382Z,9.50
2019-05-28T01:32:23.880Z,9.15
2019-05-28T01:34:53.211Z,8.68
2019-05-28T01:37:22.974Z,10.43
2019-05-28T01:39:52.472Z,9.43
2019-05-28T01:42:25.246Z,9.13
2019-05-28T01:44:58.717Z,8.73
2019-05-28T01:48:21.255Z,9.03
2019-05-28T01:50:50.849Z,9.07
2019-05-28T01:53:20.378Z,9.10
2019-05-28T01:55:49.825Z,9.10
2019-05-28T01:58:20.059Z,9.55
2019-05-28T02:00:49.570Z,8.43
2019-05-28T02:03:23.200Z,8.60
2019-05-28T02:05:52.683Z,9.08
2019-05-28T02:08:25.323Z,8.63
2019-05-28T02:10:54.934Z,9.03
2019-05-28T02:13:26.403Z,8.43
2019-05-28T02:15:55.546Z,8.70
2019-05-28T02:18:25.103Z,9.13
2019-05-28T02:20:54.657Z,9.35
2019-05-28T02:23:27.423Z,8.25
2019-05-28T02:25:56.849Z,8.50
2019-05-28T02:28:45.344Z,9.28
2019-05-28T02:31:26.841Z,9.23
2019-05-28T02:33:45.804Z,8.78
2019-05-28T02:36:15.209Z,9.23
2019-05-28T02:38:44.649Z,9.70
2019-05-28T02:41:14.012Z,8.73
2019-05-28T02:43:43.434Z,9.13
2019-05-28T02:46:12.802Z,8.70
2019-05-28T02:48:42.161Z,8.80
2019-05-28T02:51:12.321Z,9.00
2019-05-28T02:53:41.971Z,8.78
2019-05-28T02:56:14.787Z,8.93
2019-05-28T02:58:45.478Z,8.88
2019-05-28T03:01:14.918Z,8.60
2019-05-28T03:03:47.194Z,8.28
2019-05-28T03:06:17.517Z,9.15
2019-05-28T03:08:51.537Z,8.93
2019-05-28T03:11:21.291Z,8.30
2019-05-28T03:13:56.836Z,8.15
2019-05-28T03:17:00.704Z,8.13
2019-05-28T03:19:31.363Z,9.18
2019-05-28T03:22:03.447Z,8.83
2019-05-28T03:24:35.582Z,8.63
2019-05-28T03:27:05.146Z,8.20
2019-05-28T03:29:34.640Z,7.83
2019-05-28T03:32:07.900Z,7.83
2019-05-28T03:34:35.205Z,7.17
2019-05-28T03:37:05.030Z,8.03
2019-05-28T03:39:37.052Z,7.87
2019-05-28T03:42:06.390Z,8.10
2019-05-28T03:44:35.756Z,7.30
2019-05-28T03:47:05.161Z,7.70
2019-05-28T03:49:34.827Z,8.05
2019-05-28T03:52:04.301Z,8.48
2019-05-28T03:54:33.693Z,9.00
2019-05-28T03:57:03.054Z,9.13
2019-05-28T03:59:32.840Z,9.95
2019-05-28T04:02:02.451Z,9.05
2019-05-28T04:04:32.037Z,10.15
2019-05-28T04:07:07.698Z,10.15
2019-05-28T04:09:40.782Z,11.12
2019-05-28T04:12:18.389Z,10.88
2019-05-28T04:15:11.970Z,11.13
2019-05-28T04:17:41.598Z,12.65
2019-05-28T04:20:15.747Z,12.90
2019-05-28T04:22:59.320Z,12.03
2019-05-28T04:25:44.771Z,11.95
2019-05-28T04:28:11.829Z,11.50
2019-05-28T04:30:41.341Z,12.05
2019-05-28T04:33:11.667Z,12.33
2019-05-28T04:38:38.395Z,11.53
2019-05-28T04:41:24.535Z,13.00
2019-05-28T04:43:54.031Z,11.48
2019-05-28T04:46:23.490Z,10.33
2019-05-28T04:48:53.004Z,11.35
2019-05-28T04:51:22.456Z,11.48
2019-05-28T04:53:52.000Z,10.43
2019-05-28T04:56:21.468Z,10.45
2019-05-28T04:58:50.915Z,9.68
2019-05-28T05:01:20.392Z,11.45
2019-05-28T05:03:49.902Z,9.78
2019-05-28T05:06:19.348Z,9.55
2019-05-28T05:08:49.675Z,9.80
2019-05-28T05:11:19.249Z,9.13
2019-05-28T05:13:48.851Z,9.58
2019-05-28T05:16:18.274Z,9.30
2019-05-28T05:18:47.810Z,9.58
2019-05-28T05:21:17.334Z,9.60
2019-05-28T05:23:46.859Z,9.50
2019-05-28T05:26:16.393Z,10.03
2019-05-28T05:28:45.937Z,10.10
2019-05-28T05:31:15.474Z,10.28
2019-05-28T05:33:45.031Z,11.08
2019-05-28T05:36:14.620Z,9.95
2019-05-28T05:38:44.289Z,9.48
2019-05-28T05:41:13.748Z,12.05
2019-05-28T05:43:43.229Z,10.00
2019-05-28T05:46:12.734Z,9.98
2019-05-28T05:48:42.691Z,10.72
2019-05-28T05:51:12.196Z,10.50
2019-05-28T05:53:41.770Z,10.27
2019-05-28T05:56:11.236Z,10.43
2019-05-28T05:58:41.019Z,10.30
2019-05-28T06:01:10.484Z,9.48
2019-05-28T06:03:41.700Z,8.80
2019-05-28T06:06:11.221Z,7.62
2019-05-28T06:08:40.747Z,7.75
2019-05-28T06:11:10.215Z,7.17
2019-05-28T06:13:40.117Z,7.28
2019-05-28T06:16:09.665Z,7.12
2019-05-28T06:18:39.156Z,7.05
2019-05-28T06:21:15.087Z,7.20
2019-05-28T06:23:39.946Z,7.33
2019-05-28T06:26:09.507Z,6.67
2019-05-28T06:28:39.029Z,7.40
2019-05-28T06:31:08.575Z,6.17
2019-05-28T06:33:38.152Z,7.92
2019-05-28T06:36:07.639Z,8.03
2019-05-28T06:38:37.073Z,7.15
2019-05-28T06:41:06.628Z,6.33
2019-05-28T06:43:36.178Z,6.10
2019-05-28T06:46:06.290Z,5.20
2019-05-28T06:48:35.876Z,5.50
2019-05-28T06:51:05.438Z,4.92
2019-05-28T06:53:34.965Z,4.40
2019-05-28T06:56:04.483Z,4.65
2019-05-28T06:58:39.528Z,4.70
2019-05-28T07:01:05.475Z,4.70
2019-05-28T07:03:35.167Z,4.40
2019-05-28T07:06:07.685Z,4.53
2019-05-28T07:08:35.864Z,4.87
2019-05-28T07:11:05.379Z,5.42
2019-05-28T07:13:34.913Z,5.58
2019-05-28T07:16:04.347Z,5.70
2019-05-28T07:18:33.862Z,6.08
2019-05-28T07:21:03.417Z,6.08
2019-05-28T07:23:32.926Z,4.92
2019-05-28T07:26:02.403Z,4.30
2019-05-28T07:28:31.915Z,4.30
2019-05-28T07:31:01.382Z,3.50
2019-05-28T07:33:34.826Z,3.90
2019-05-28T07:36:02.007Z,3.50
2019-05-28T07:38:31.523Z,3.00
2019-05-28T07:41:01.044Z,3.10
2019-05-28T07:43:30.494Z,3.70
2019-05-28T07:46:00.019Z,3.40
2019-05-28T07:48:29.546Z,3.23
2019-05-28T07:50:59.060Z,3.00
2019-05-28T07:53:39.252Z,3.20
2019-05-28T07:55:59.951Z,3.12
2019-05-28T07:58:29.496Z,3.92
2019-05-28T08:00:58.965Z,5.58
2019-05-28T08:03:28.470Z,4.62
2019-05-28T08:05:57.974Z,4.08
2019-05-28T08:08:27.956Z,4.60
2019-05-28T08:10:57.458Z,4.72
2019-05-28T08:13:40.327Z,4.37
2019-05-28T08:16:16.833Z,4.60
2019-05-28T08:18:29.420Z,4.50
2019-05-28T08:20:58.943Z,5.12
2019-05-28T08:23:28.387Z,5.15
2019-05-28T08:26:01.511Z,5.22
2019-05-28T08:28:29.107Z,5.25
2019-05-28T08:31:14.152Z,5.67
2019-05-28T08:33:33.123Z,5.22
2019-05-28T08:36:02.735Z,5.75
2019-05-28T08:38:32.180Z,5.95
2019-05-28T08:41:01.700Z,5.55
2019-05-28T08:43:31.152Z,5.90
2019-05-28T08:46:00.668Z,5.72
2019-05-28T08:48:30.268Z,6.33
2019-05-28T08:50:59.782Z,5.90
2019-05-28T08:53:29.753Z,6.75
2019-05-28T08:55:59.378Z,5.87
2019-05-28T08:58:28.981Z,6.25
2019-05-28T09:00:58.603Z,5.95
2019-05-28T09:03:28.245Z,5.87
2019-05-28T09:05:58.171Z,5.75
2019-05-28T09:08:38.477Z,5.75
2019-05-28T09:10:59.044Z,6.42
2019-05-28T09:13:28.631Z,6.33
2019-05-28T09:15:58.316Z,6.53
2019-05-28T09:18:27.874Z,6.85
2019-05-28T09:21:00.848Z,6.47
2019-05-28T09:23:30.538Z,6.35
2019-05-28T09:26:00.259Z,6.92
2019-05-28T09:28:31.318Z,7.17
2019-05-28T09:31:01.008Z,7.17
2019-05-28T09:33:30.536Z,7.12
2019-05-28T09:36:08.669Z,6.92
2019-05-28T09:38:33.039Z,6.33
2019-05-28T09:41:05.957Z,5.33
2019-05-28T09:43:34.859Z,4.83
2019-05-28T09:46:05.837Z,4.87
2019-05-28T09:48:35.384Z,5.35
2019-05-28T09:51:05.207Z,6.70
2019-05-28T09:53:35.201Z,6.47
2019-05-28T09:56:04.792Z,7.17
2019-05-28T09:58:34.390Z,6.40
2019-05-28T10:01:03.948Z,7.12
2019-05-28T10:03:33.471Z,7.83
2019-05-28T10:06:16.463Z,9.55
2019-05-28T10:08:34.352Z,10.50
2019-05-28T10:11:03.964Z,10.55
2019-05-28T10:13:39.524Z,9.75
2019-05-28T10:16:04.969Z,10.10
2019-05-28T10:18:36.404Z,10.13
2019-05-28T10:21:17.625Z,10.03
2019-05-28T10:23:37.195Z,10.15
2019-05-28T10:26:06.761Z,10.23
2019-05-28T10:28:36.867Z,10.65
2019-05-28T10:31:06.451Z,11.53
2019-05-28T10:33:36.064Z,11.43
2019-05-28T10:36:05.767Z,11.57
2019-05-28T10:38:35.924Z,11.78
2019-05-28T10:41:06.087Z,12.82
2019-05-28T10:43:35.620Z,11.88
2019-05-28T10:46:07.876Z,11.33
2019-05-28T10:48:37.916Z,11.55
2019-05-28T10:51:07.461Z,11.28
2019-05-28T10:53:36.982Z,11.03
2019-05-28T10:56:06.496Z,6.60
2019-05-28T10:58:36.439Z,6.28
2019-05-28T11:01:06.476Z,6.58
2019-05-28T11:03:36.122Z,6.33
2019-05-28T11:06:05.726Z,6.50
2019-05-28T11:08:35.238Z,3.17
2019-05-28T11:11:05.268Z,2.98
2019-05-28T11:13:34.791Z,2.95
2019-05-28T11:16:05.692Z,2.80
2019-05-28T11:18:35.295Z,3.20
2019-05-28T11:21:09.462Z,3.47
2019-05-28T11:23:36.069Z,2.62
2019-05-28T11:26:05.787Z,2.72
2019-05-28T11:28:35.413Z,3.00
2019-05-28T11:31:04.952Z,3.12
2019-05-28T11:33:34.905Z,3.65
2019-05-28T11:36:04.600Z,3.80
2019-05-28T11:38:34.046Z,3.67
2019-05-28T11:41:03.700Z,2.90
2019-05-28T11:43:33.250Z,2.80
2019-05-28T11:46:02.836Z,2.30
2019-05-28T11:48:32.424Z,1.67
2019-05-28T11:51:04.028Z,1.47
2019-05-28T11:53:36.670Z,1.67
2019-05-28T11:56:04.992Z,1.45
2019-05-28T11:58:34.559Z,1.32
2019-05-28T12:01:04.271Z,1.72
2019-05-28T12:03:34.228Z,1.55
2019-05-28T12:06:03.805Z,1.47
2019-05-28T12:08:33.342Z,1.42
2019-05-28T12:11:02.872Z,1.20
2019-05-28T12:13:32.688Z,1.42
2019-05-28T12:16:02.259Z,1.40
2019-05-28T12:18:31.839Z,1.55
2019-05-28T12:21:01.911Z,1.67
2019-05-28T12:23:31.434Z,1.30
2019-05-28T12:26:01.172Z,1.35
2019-05-28T12:28:37.848Z,1.12
2019-05-28T12:31:02.269Z,1.00
2019-05-28T12:33:31.797Z,0.93
2019-05-28T12:36:01.269Z,0.80
2019-05-28T12:38:30.864Z,1.00
2019-05-28T12:41:01.358Z,1.42
2019-05-28T12:43:31.355Z,1.20
2019-05-28T12:46:01.249Z,1.00
2019-05-28T12:48:30.856Z,1.10
2019-05-28T12:51:02.353Z,0.82
2019-05-28T12:53:48.208Z,1.00
2019-05-28T12:56:02.853Z,1.20
2019-05-28T12:58:42.277Z,1.00
2019-05-28T13:01:03.926Z,1.10
2019-05-28T13:03:33.867Z,0.93
2019-05-28T13:06:03.395Z,1.00
2019-05-28T13:08:32.987Z,1.00
2019-05-28T13:11:02.547Z,1.20
2019-05-28T13:13:32.300Z,1.20
2019-05-28T13:16:01.782Z,1.10
2019-05-28T13:18:31.463Z,0.93
2019-05-28T13:21:01.061Z,0.90
2019-05-28T13:23:30.507Z,1.00
2019-05-28T13:26:00.338Z,1.15
2019-05-28T13:28:29.869Z,1.15
2019-05-28T13:30:59.382Z,1.12
2019-05-28T13:33:28.852Z,1.15
2019-05-28T13:35:58.375Z,1.10
2019-05-28T13:38:28.036Z,1.32
2019-05-28T13:40:57.615Z,1.15
2019-05-28T13:43:27.132Z,1.30
2019-05-28T13:45:56.683Z,1.40
2019-05-28T13:48:26.175Z,1.30
2019-05-28T13:50:55.745Z,1.35
2019-05-28T13:53:25.335Z,1.40
2019-05-28T13:55:54.841Z,1.47
2019-05-28T13:58:24.364Z,1.65
2019-05-28T14:00:53.939Z,1.50
2019-05-28T14:03:23.539Z,1.55
2019-05-28T14:05:53.063Z,1.40
2019-05-28T14:08:22.580Z,1.25
2019-05-28T14:10:52.548Z,1.47
2019-05-28T14:13:22.094Z,1.20
2019-05-28T14:15:51.561Z,1.37
2019-05-28T14:18:24.137Z,1.15
2019-05-28T14:20:56.013Z,1.50
2019-05-28T14:23:25.523Z,1.42
2019-05-28T14:25:55.291Z,1.17
2019-05-28T14:28:24.864Z,1.22
2019-05-28T14:33:30.659Z,1.10
2019-05-28T14:36:00.218Z,1.10
2019-05-28T14:38:29.715Z,1.20
2019-05-28T14:41:00.061Z,1.00
2019-05-28T14:43:29.997Z,1.27
2019-05-28T14:45:59.425Z,1.30
2019-05-28T14:48:28.955Z,1.10
2019-05-28T14:50:58.851Z,1.20
2019-05-28T14:53:28.384Z,1.30
2019-05-28T14:55:57.926Z,1.42
2019-05-28T14:58:27.451Z,1.22
2019-05-28T15:00:57.031Z,0.95
2019-05-28T15:03:26.577Z,1.10
2019-05-28T15:05:56.090Z,1.07
2019-05-28T15:08:25.612Z,1.07
2019-05-28T15:10:55.146Z,1.15
2019-05-28T15:13:24.670Z,1.10
2019-05-28T15:15:54.563Z,1.40
2019-05-28T15:18:24.120Z,1.15
2019-05-28T15:20:53.626Z,1.20
2019-05-28T15:23:23.247Z,1.40
2019-05-28T15:25:52.784Z,0.88
2019-05-28T15:28:22.398Z,1.20
2019-05-28T15:30:51.900Z,0.93
2019-05-28T15:33:21.453Z,1.20
2019-05-28T15:35:50.991Z,1.00
2019-05-28T15:38:20.473Z,1.10
2019-05-28T15:40:50.012Z,1.22
2019-05-28T15:43:19.532Z,1.00
2019-05-28T15:45:55.255Z,1.25
2019-05-28T15:48:24.782Z,1.45
2019-05-28T15:50:54.297Z,1.10
2019-05-28T15:53:23.836Z,1.12
2019-05-28T15:55:53.395Z,1.00
2019-05-28T15:58:22.943Z,0.80
2019-05-28T16:00:52.517Z,0.90
2019-05-28T16:03:23.186Z,1.10
2019-05-28T16:05:52.983Z,0.90
2019-05-28T16:08:22.603Z,0.70
2019-05-28T16:10:52.099Z,0.80
2019-05-28T16:13:21.738Z,0.95
2019-05-28T16:15:51.203Z,0.80
2019-05-28T16:18:20.676Z,0.90
2019-05-28T16:20:50.207Z,0.88
2019-05-28T16:23:19.727Z,0.70
2019-05-28T16:25:49.235Z,0.95
2019-05-28T16:28:19.020Z,1.10
2019-05-28T16:30:48.597Z,0.78
2019-05-28T16:33:18.269Z,0.72
2019-05-28T16:35:48.940Z,0.80
2019-05-28T16:38:18.477Z,0.82
2019-05-28T16:40:48.084Z,0.80
2019-05-28T16:43:17.620Z,0.90
2019-05-28T16:45:47.166Z,0.90
2019-05-28T16:48:16.626Z,0.90
2019-05-28T16:50:46.135Z,1.00
2019-05-28T16:53:15.681Z,0.95
2019-05-28T16:55:45.221Z,0.75
2019-05-28T16:58:14.790Z,1.10
2019-05-28T17:00:44.382Z,1.00
2019-05-28T17:03:13.902Z,0.80
2019-05-28T17:05:43.436Z,1.00
2019-05-28T17:08:13.347Z,0.98
2019-05-28T17:10:42.864Z,0.90
2019-05-28T17:13:12.453Z,0.93
2019-05-28T17:15:41.952Z,0.82
2019-05-28T17:18:11.531Z,0.70
2019-05-28T17:20:41.061Z,0.82
2019-05-28T17:23:10.594Z,0.60
2019-05-28T17:25:40.221Z,0.90
2019-05-28T17:28:09.799Z,0.88
2019-05-28T17:30:39.456Z,0.90
2019-05-28T17:33:08.987Z,0.78
2019-05-28T17:35:38.569Z,0.95
2019-05-28T17:38:08.212Z,1.00
2019-05-28T17:40:47.936Z,0.72
2019-05-28T17:43:08.901Z,0.80
2019-05-28T17:45:39.452Z,0.72
2019-05-28T17:48:09.278Z,0.70
2019-05-28T17:50:39.019Z,0.80
2019-05-28T17:53:08.550Z,0.60
2019-05-28T17:55:38.161Z,0.90
2019-05-28T17:58:07.631Z,0.90
2019-05-28T18:00:37.248Z,0.95
2019-05-28T18:03:06.773Z,0.90
2019-05-28T18:05:36.363Z,0.90
2019-05-28T18:08:05.935Z,0.80
2019-05-28T18:10:35.436Z,0.90
2019-05-28T18:13:05.302Z,0.90
2019-05-28T18:15:34.791Z,0.98
2019-05-28T18:18:04.328Z,0.90
2019-05-28T18:20:33.834Z,1.20
2019-05-28T18:23:03.363Z,1.07
2019-05-28T18:25:32.958Z,1.00
2019-05-28T18:28:02.831Z,1.22
2019-05-28T18:30:32.357Z,1.27
2019-05-28T18:33:01.848Z,1.27
2019-05-28T18:35:31.531Z,1.30
2019-05-28T18:38:04.184Z,1.30
2019-05-28T18:40:32.365Z,1.02
2019-05-28T18:43:02.129Z,1.20
2019-05-28T18:45:31.748Z,1.32
2019-05-28T18:48:06.075Z,1.67
2019-05-28T18:50:35.738Z,1.45
2019-05-28T18:53:05.291Z,1.30
2019-05-28T18:55:41.288Z,1.37
2019-05-28T18:58:11.363Z,1.42
2019-05-28T19:00:40.888Z,1.80
2019-05-28T19:03:10.426Z,1.77
2019-05-28T19:05:39.999Z,1.90
2019-05-28T19:08:09.564Z,2.00
2019-05-28T19:10:39.083Z,2.20
2019-05-28T19:13:08.558Z,2.00
2019-05-28T19:15:38.075Z,2.20
2019-05-28T19:18:07.535Z,2.47
2019-05-28T19:20:36.972Z,2.40
2019-05-28T19:23:06.455Z,2.10
2019-05-28T19:25:36.022Z,2.10
2019-05-28T19:28:05.818Z,2.20
2019-05-28T19:30:35.711Z,2.00
2019-05-28T19:33:05.954Z,2.20
2019-05-28T19:35:35.731Z,1.82
2019-05-28T19:38:05.457Z,2.20
2019-05-28T19:40:36.701Z,1.90
2019-05-28T19:43:07.000Z,1.90
2019-05-28T19:45:37.210Z,1.92
2019-05-28T19:48:07.277Z,2.20
2019-05-28T19:50:36.826Z,2.00
2019-05-28T19:53:06.432Z,1.92
2019-05-28T19:55:35.939Z,2.15
2019-05-28T19:58:06.017Z,2.30
2019-05-28T20:00:35.783Z,1.95
2019-05-28T20:03:05.249Z,2.20
2019-05-28T20:05:34.736Z,2.15
2019-05-28T20:08:04.273Z,2.10
2019-05-28T20:10:33.784Z,2.30
2019-05-28T20:13:03.308Z,2.22
2019-05-28T20:15:32.820Z,2.30
2019-05-28T20:18:02.619Z,2.52
2019-05-28T20:20:32.085Z,2.37
2019-05-28T20:23:01.619Z,2.33
2019-05-28T20:25:31.038Z,2.20
2019-05-28T20:28:00.504Z,2.42
2019-05-28T20:30:30.081Z,2.70
2019-05-28T20:33:01.324Z,2.58
2019-05-28T20:35:31.315Z,2.67
2019-05-28T20:38:04.532Z,2.80
2019-05-28T20:40:31.805Z,2.33
2019-05-28T20:43:04.000Z,2.45
2019-05-28T20:45:33.613Z,2.90
2019-05-28T20:48:02.974Z,2.75
2019-05-28T20:50:32.413Z,2.37
2019-05-28T20:53:02.191Z,2.50
2019-05-28T20:55:33.790Z,2.65
2019-05-28T20:58:03.178Z,3.02
2019-05-28T21:00:32.662Z,3.25
2019-05-28T21:03:02.098Z,3.00
2019-05-28T21:05:31.542Z,2.72
2019-05-28T21:08:01.236Z,2.98
2019-05-28T21:10:30.743Z,3.25
2019-05-28T21:13:00.205Z,3.02
2019-05-28T21:15:29.811Z,3.12
2019-05-28T21:17:59.618Z,3.60
2019-05-28T21:20:29.145Z,3.67
2019-05-28T21:22:58.619Z,3.90
2019-05-28T21:25:30.462Z,3.60
2019-05-28T21:28:01.935Z,3.90
2019-05-28T21:30:31.482Z,4.30
2019-05-28T21:33:01.366Z,4.25
2019-05-28T21:35:32.277Z,3.97
2019-05-28T21:38:01.737Z,4.60
2019-05-28T21:40:31.041Z,4.92
2019-05-28T21:43:07.581Z,5.35
2019-05-28T21:45:31.626Z,5.50
2019-05-28T21:48:01.282Z,5.33
2019-05-28T21:50:30.899Z,6.73
2019-05-28T21:53:04.201Z,6.78
2019-05-28T21:55:33.798Z,6.90
2019-05-28T21:58:04.056Z,7.58
2019-05-28T22:00:44.211Z,7.92
2019-05-28T22:03:13.651Z,7.70
2019-05-28T22:05:43.521Z,7.60
2019-05-28T22:08:12.929Z,7.27
2019-05-28T22:10:42.321Z,8.23
2019-05-28T22:13:20.406Z,7.65
2019-05-28T22:15:42.908Z,7.67
2019-05-28T22:18:12.238Z,7.60
2019-05-28T22:20:41.667Z,7.80
2019-05-28T22:23:11.058Z,7.47
2019-05-28T22:25:40.486Z,8.00
2019-05-28T22:28:09.876Z,7.87
2019-05-28T22:30:39.227Z,7.92
2019-05-28T22:33:08.582Z,8.65
2019-05-28T22:35:37.976Z,7.80
2019-05-28T22:38:07.594Z,8.07
2019-05-28T22:40:37.085Z,7.80
2019-05-28T22:43:06.893Z,7.80
2019-05-28T22:45:41.783Z,8.40
2019-05-28T22:48:14.742Z,7.70
2019-05-28T22:50:38.522Z,7.08
2019-05-28T22:53:08.298Z,7.08
2019-05-28T22:55:37.705Z,6.72
2019-05-28T22:58:08.459Z,7.37
2019-05-28T23:00:39.082Z,6.90
2019-05-28T23:03:09.208Z,7.25
2019-05-28T23:05:38.809Z,6.37
2019-05-28T23:08:08.221Z,6.30
2019-05-28T23:10:37.548Z,6.10
2019-05-28T23:13:07.121Z,5.90
2019-05-28T23:15:36.485Z,5.92
2019-05-28T23:18:07.278Z,6.42
2019-05-28T23:20:36.950Z,6.72
2019-05-28T23:23:07.278Z,6.10
2019-05-28T23:25:36.795Z,6.27
2019-05-28T23:28:06.160Z,6.65
2019-05-28T23:30:35.555Z,6.50
2019-05-28T23:33:06.188Z,6.03
2019-05-28T23:35:35.657Z,6.87
2019-05-28T23:38:06.983Z,7.65
2019-05-28T23:40:36.409Z,6.83
2019-05-28T23:43:05.730Z,6.47
2019-05-28T23:45:35.114Z,6.77
2019-05-28T23:48:10.700Z,6.80
2019-05-28T23:50:35.558Z,6.63
2019-05-28T23:53:05.657Z,6.37
2019-05-28T23:55:35.162Z,6.10
2019-05-28T23:58:05.668Z,5.77
